Time;durP1;ratioP1;P1;durP2;ratioP2;P2;SDS_P1;SDS_P2;PMS_P1;PMS_P2;Temp;Humidity;BMP_temperature;BMP_pressure;BME280_temperature;BME280_humidity;BME280_pressure;Samples;Min_cycle;Max_cycle;Signal;HPM_P1;HPM_P2
2023/06/15 00:00:57;;;;;;;7.07;3.93;;;16.20;98.00;;;;;;5053431;28;20541;-68
2023/06/15 00:03:26;;;;;;;8.17;4.13;;;16.10;98.00;;;;;;5052991;28;20515;-68
2023/06/15 00:05:53;;;;;;;6.43;4.00;;;16.10;98.00;;;;;;5053311;28;20450;-68
2023/06/15 00:08:20;;;;;;;7.27;4.37;;;16.00;98.00;;;;;;5052939;28;21209;-69
2023/06/15 00:10:48;;;;;;;7.23;4.20;;;15.80;98.00;;;;;;5053241;28;20936;-68
2023/06/15 00:13:15;;;;;;;6.97;4.10;;;15.90;98.00;;;;;;5052855;28;20454;-69
2023/06/15 00:15:42;;;;;;;6.87;3.90;;;15.90;98.00;;;;;;5052937;28;20453;-69
2023/06/15 00:18:09;;;;;;;6.57;4.30;;;15.80;98.00;;;;;;5052857;28;20975;-68
2023/06/15 00:20:40;;;;;;;8.40;4.63;;;15.90;98.00;;;;;;5035294;28;20798;-68
2023/06/15 00:23:08;;;;;;;8.00;4.23;;;15.90;98.00;;;;;;5052732;28;20472;-69
2023/06/15 00:25:35;;;;;;;9.63;4.30;;;16.00;98.00;;;;;;5052240;28;20870;-68
2023/06/15 00:28:03;;;;;;;6.10;4.00;;;15.80;98.00;;;;;;5035115;28;20492;-70
2023/06/15 00:30:30;;;;;;;6.40;4.23;;;15.90;98.00;;;;;;5052340;28;20456;-68
2023/06/15 00:32:57;;;;;;;7.40;4.37;;;15.70;98.00;;;;;;5034874;28;21034;-69
2023/06/15 00:35:24;;;;;;;8.63;4.80;;;15.60;98.00;;;;;;5052793;28;20504;-68
2023/06/15 00:37:52;;;;;;;7.33;4.07;;;15.50;98.00;;;;;;5052675;28;20464;-69
2023/06/15 00:40:19;;;;;;;6.53;4.07;;;15.50;98.00;;;;;;5052760;28;20523;-69
2023/06/15 00:42:46;;;;;;;7.00;4.47;;;15.40;98.00;;;;;;5052832;28;20458;-68
2023/06/15 00:45:13;;;;;;;6.97;4.10;;;15.40;98.00;;;;;;5052800;28;20449;-69
2023/06/15 00:47:42;;;;;;;9.23;5.00;;;15.50;98.00;;;;;;5052692;28;20490;-68
2023/06/15 00:50:14;;;;;;;7.63;3.80;;;15.50;98.00;;;;;;5052833;28;20462;-69
2023/06/15 00:52:41;;;;;;;8.73;4.73;;;15.60;98.00;;;;;;5052609;28;20925;-68
2023/06/15 00:55:12;;;;;;;7.97;4.50;;;15.70;98.00;;;;;;5052539;28;20464;-68
2023/06/15 00:57:44;;;;;;;8.60;4.40;;;15.60;98.00;;;;;;5052273;28;20454;-68
2023/06/15 01:00:12;;;;;;;8.73;4.47;;;15.50;98.00;;;;;;5052455;28;20516;-68
2023/06/15 01:02:40;;;;;;;8.17;4.47;;;15.50;98.00;;;;;;5052250;28;20457;-68
2023/06/15 01:05:10;;;;;;;9.63;4.40;;;15.40;98.00;;;;;;5034609;28;20454;-69
2023/06/15 01:07:40;;;;;;;7.97;4.70;;;15.40;98.00;;;;;;5051674;28;20482;-68
2023/06/15 01:23:43;;;;;;;7.57;4.40;;;15.40;98.00;;;;;;5051931;28;20416;-68
2023/06/15 01:26:13;;;;;;;8.27;4.63;;;15.40;98.00;;;;;;5052029;28;20960;-68
2023/06/15 01:28:42;;;;;;;9.60;4.50;;;15.30;98.00;;;;;;5051803;28;20461;-69
2023/06/15 01:31:09;;;;;;;7.77;4.30;;;15.30;98.00;;;;;;5052057;28;20467;-68
2023/06/15 01:33:45;;;;;;;10.90;4.60;;;15.30;98.00;;;;;;5051759;28;20474;-68
2023/06/15 01:36:13;;;;;;;7.90;4.13;;;15.30;98.00;;;;;;5034266;28;20979;-68
2023/06/15 01:38:41;;;;;;;7.97;4.47;;;15.10;98.00;;;;;;5051693;28;20462;-68
2023/06/15 01:41:14;;;;;;;7.20;4.10;;;15.00;98.00;;;;;;5052080;28;20845;-69
2023/06/15 01:43:42;;;;;;;7.80;4.10;;;15.10;98.00;;;;;;5051937;28;20453;-68
2023/06/15 01:46:10;;;;;;;8.00;4.70;;;15.30;98.00;;;;;;5051481;28;20480;-68
2023/06/15 01:48:39;;;;;;;7.73;4.00;;;15.40;98.00;;;;;;5051529;28;20465;-69
2023/06/15 01:51:06;;;;;;;8.73;4.37;;;15.30;98.00;;;;;;5051648;28;20563;-68
2023/06/15 01:53:34;;;;;;;12.13;4.77;;;15.30;98.00;;;;;;5051518;28;20956;-69
2023/06/15 01:56:02;;;;;;;8.10;4.30;;;15.30;98.00;;;;;;5051599;28;20564;-68
2023/06/15 01:58:30;;;;;;;8.80;4.73;;;15.40;98.00;;;;;;5051678;28;20470;-68
2023/06/15 02:00:59;;;;;;;8.50;4.47;;;15.30;98.00;;;;;;5051832;28;20446;-69
2023/06/15 02:17:38;;;;;;;5.90;4.10;;;15.10;98.00;;;;;;5051573;28;20519;-69
2023/06/15 02:22:52;;;;;;;5.93;3.60;;;15.20;98.00;;;;;;5051287;28;20515;-68
2023/06/15 02:25:19;;;;;;;6.77;3.83;;;15.10;98.00;;;;;;5034358;28;20481;-68
2023/06/15 02:27:46;;;;;;;8.93;4.90;;;15.10;98.00;;;;;;5051141;28;20485;-70
2023/06/15 02:30:14;;;;;;;9.40;4.20;;;15.20;98.00;;;;;;5051352;28;20507;-68
2023/06/15 02:32:42;;;;;;;6.93;4.13;;;15.20;98.00;;;;;;5051303;28;20493;-68
2023/06/15 02:35:11;;;;;;;7.17;4.13;;;15.40;98.00;;;;;;5051508;28;20462;-68
2023/06/15 02:37:40;;;;;;;7.23;4.30;;;15.50;98.00;;;;;;5051244;28;20487;-68
2023/06/15 02:40:09;;;;;;;8.33;4.17;;;15.50;98.00;;;;;;5051664;28;20462;-68
2023/06/15 02:42:36;;;;;;;6.13;4.20;;;15.50;98.00;;;;;;5051414;28;20450;-68
2023/06/15 02:45:06;;;;;;;6.67;4.20;;;15.60;98.00;;;;;;5051541;28;20457;-69
2023/06/15 02:47:34;;;;;;;7.07;3.90;;;15.60;98.00;;;;;;5052128;28;20492;-68
2023/06/15 02:50:02;;;;;;;14.33;4.20;;;15.40;98.00;;;;;;5054781;28;20560;-68
2023/06/15 02:52:31;;;;;;;7.93;3.90;;;15.20;98.00;;;;;;5054055;28;20838;-68
2023/06/15 02:54:59;;;;;;;8.57;4.43;;;15.30;98.00;;;;;;5054703;28;20854;-68
2023/06/15 02:57:26;;;;;;;9.37;4.90;;;15.30;98.00;;;;;;5054454;28;20454;-69
2023/06/15 02:59:53;;;;;;;9.57;4.60;;;15.40;98.00;;;;;;5054585;28;20843;-68
2023/06/15 03:02:22;;;;;;;8.53;4.47;;;15.50;98.00;;;;;;5054524;28;20445;-69
2023/06/15 03:18:18;;;;;;;5.77;3.90;;;15.30;98.00;;;;;;5054789;28;20445;-68
2023/06/15 03:20:52;;;;;;;8.17;4.60;;;15.30;98.00;;;;;;5054145;28;20454;-68
2023/06/15 03:23:19;;;;;;;5.23;3.77;;;15.40;98.00;;;;;;5054164;28;20458;-69
2023/06/15 03:25:47;;;;;;;10.13;4.50;;;15.40;98.00;;;;;;5054133;28;20457;-69
2023/06/15 03:28:14;;;;;;;9.70;4.33;;;15.30;98.00;;;;;;5054196;28;20556;-68
2023/06/15 03:30:41;;;;;;;7.70;4.43;;;15.30;98.00;;;;;;5053741;28;20465;-68
2023/06/15 03:33:08;;;;;;;11.40;4.30;;;15.10;98.00;;;;;;5036088;28;20553;-69
2023/06/15 03:35:36;;;;;;;7.80;4.80;;;15.00;98.00;;;;;;5054072;28;20450;-68
2023/06/15 03:38:04;;;;;;;8.80;5.00;;;14.90;98.00;;;;;;5053908;28;20458;-68
2023/06/15 03:40:31;;;;;;;6.60;4.20;;;14.90;98.00;;;;;;5036149;28;20453;-68
2023/06/15 04:13:39;;;;;;;7.97;4.60;;;14.90;98.00;;;;;;5052685;28;20428;-68
2023/06/15 04:16:07;;;;;;;9.27;4.53;;;14.90;98.00;;;;;;5052449;28;20515;-68
2023/06/15 04:18:34;;;;;;;7.70;4.50;;;14.70;98.00;;;;;;5034736;28;20458;-68
2023/06/15 04:21:02;;;;;;;7.20;4.37;;;14.50;98.00;;;;;;5052287;28;20969;-68
2023/06/15 04:23:29;;;;;;;8.73;4.43;;;14.50;98.00;;;;;;5052631;28;20457;-69
2023/06/15 04:25:58;;;;;;;8.17;4.43;;;14.50;98.00;;;;;;5035451;28;20461;-69
2023/06/15 04:28:25;;;;;;;7.13;4.30;;;14.50;98.00;;;;;;5053127;28;20531;-69
2023/06/15 04:31:10;;;;;;;5.33;3.67;;;14.50;98.00;;;;;;5053029;28;20477;-68
2023/06/15 04:33:42;;;;;;;7.13;4.10;;;14.60;98.00;;;;;;5052324;28;20496;-68
2023/06/15 04:36:12;;;;;;;9.13;5.03;;;14.80;98.00;;;;;;5052813;28;20886;-68
2023/06/15 04:38:39;;;;;;;8.33;4.50;;;14.80;98.00;;;;;;5052525;28;20951;-69
2023/06/15 04:41:08;;;;;;;7.93;4.30;;;15.00;98.00;;;;;;5052607;28;20450;-68
2023/06/15 04:43:36;;;;;;;7.57;4.40;;;14.90;98.00;;;;;;5034571;28;20537;-69
2023/06/15 04:46:04;;;;;;;7.17;4.30;;;15.00;98.00;;;;;;5034633;28;20933;-68
2023/06/15 04:48:32;;;;;;;7.70;4.57;;;14.90;98.00;;;;;;5052111;28;20523;-68
2023/06/15 04:51:01;;;;;;;10.87;4.90;;;15.10;98.00;;;;;;5035040;28;20504;-68
2023/06/15 04:53:29;;;;;;;7.40;4.30;;;15.20;98.00;;;;;;5032479;28;20454;-68
2023/06/15 04:55:56;;;;;;;7.90;4.87;;;15.30;98.00;;;;;;5032393;28;20458;-68
2023/06/15 04:58:23;;;;;;;12.03;5.50;;;15.50;98.00;;;;;;5015074;28;20465;-68
2023/06/15 05:00:50;;;;;;;8.50;4.90;;;15.50;98.00;;;;;;5015082;28;20505;-69
2023/06/15 05:03:20;;;;;;;7.30;4.57;;;15.50;98.00;;;;;;5015182;28;20835;-68
2023/06/15 05:05:47;;;;;;;10.43;5.50;;;15.60;98.00;;;;;;5014803;28;20463;-68
2023/06/15 05:08:15;;;;;;;11.30;5.50;;;15.60;98.00;;;;;;5032349;28;20532;-69
2023/06/15 05:10:43;;;;;;;8.80;5.23;;;15.80;98.00;;;;;;5031834;28;20491;-68
2023/06/15 05:13:10;;;;;;;8.70;4.70;;;15.90;98.00;;;;;;5032273;28;20465;-68
2023/06/15 05:15:37;;;;;;;10.10;5.10;;;16.00;98.00;;;;;;5032318;28;20462;-69
2023/06/15 05:18:04;;;;;;;8.67;5.10;;;16.00;98.00;;;;;;5032464;28;20807;-68
2023/06/15 05:20:33;;;;;;;8.43;5.17;;;16.10;98.00;;;;;;5032455;28;20459;-68
2023/06/15 05:23:00;;;;;;;9.00;4.93;;;16.20;98.00;;;;;;5032357;28;20467;-69
2023/06/15 05:25:27;;;;;;;8.10;4.70;;;16.30;98.00;;;;;;5014737;28;20461;-69
2023/06/15 05:27:55;;;;;;;7.67;4.70;;;16.40;98.00;;;;;;5032005;28;20486;-68
2023/06/15 05:30:26;;;;;;;8.30;4.93;;;16.60;98.00;;;;;;5031984;28;20459;-69
2023/06/15 05:32:54;;;;;;;8.43;5.00;;;16.70;98.00;;;;;;5031887;28;20550;-68
2023/06/15 05:35:21;;;;;;;9.30;5.30;;;16.70;98.00;;;;;;5031504;28;20953;-69
2023/06/15 05:37:50;;;;;;;10.77;4.97;;;16.80;98.00;;;;;;5014332;28;20466;-68
2023/06/15 05:40:18;;;;;;;8.17;4.70;;;16.80;98.00;;;;;;5031727;28;20478;-69
2023/06/15 05:42:45;;;;;;;8.83;4.93;;;17.00;98.00;;;;;;5031752;28;20489;-69
2023/06/15 05:45:12;;;;;;;8.00;4.60;;;17.10;98.00;;;;;;5031562;28;20454;-69
2023/06/15 05:47:39;;;;;;;7.80;4.53;;;17.30;98.00;;;;;;5031553;28;20486;-69
2023/06/15 05:50:10;;;;;;;8.97;4.70;;;17.50;98.00;;;;;;5031673;28;20512;-69
2023/06/15 05:52:37;;;;;;;9.37;5.20;;;17.50;98.00;;;;;;5014596;28;20450;-69
2023/06/15 05:55:07;;;;;;;9.60;5.00;;;17.50;98.00;;;;;;5014221;28;20461;-69
2023/06/15 05:57:34;;;;;;;8.57;5.23;;;17.60;98.00;;;;;;5031617;28;20473;-69
2023/06/15 06:00:03;;;;;;;9.97;5.40;;;17.60;98.00;;;;;;5031809;28;20454;-68
2023/06/15 06:02:31;;;;;;;12.07;5.57;;;17.70;98.00;;;;;;5031542;28;20486;-69
2023/06/15 06:04:58;;;;;;;10.17;5.53;;;17.70;98.00;;;;;;5014264;28;20454;-69
2023/06/15 06:07:25;;;;;;;7.97;5.20;;;17.80;98.00;;;;;;5031619;28;20462;-69
2023/06/15 06:09:52;;;;;;;23.03;5.03;;;17.80;98.00;;;;;;5031646;28;20450;-67
2023/06/15 06:12:20;;;;;;;7.90;4.53;;;17.80;98.00;;;;;;5032019;28;20451;-67
2023/06/15 06:14:47;;;;;;;8.03;4.50;;;17.80;98.00;;;;;;5031746;28;20838;-67
2023/06/15 06:17:15;;;;;;;7.60;4.87;;;17.90;98.00;;;;;;5032013;28;20455;-67
2023/06/15 06:19:42;;;;;;;13.00;5.20;;;18.00;98.00;;;;;;5031499;28;20528;-67
2023/06/15 06:22:09;;;;;;;8.00;4.90;;;18.00;98.00;;;;;;5032451;28;20450;-67
2023/06/15 06:24:36;;;;;;;9.57;4.70;;;18.10;98.00;;;;;;5035449;28;20459;-67
2023/06/15 06:27:03;;;;;;;8.63;5.10;;;18.20;98.00;;;;;;5017781;28;20971;-67
2023/06/15 06:29:32;;;;;;;7.33;4.40;;;18.30;98.00;;;;;;5035003;28;20482;-67
2023/06/15 06:31:59;;;;;;;12.03;5.03;;;18.40;98.00;;;;;;5035309;28;20460;-66
2023/06/15 06:34:27;;;;;;;8.33;4.80;;;18.60;98.00;;;;;;5035242;28;20933;-66
2023/06/15 06:36:54;;;;;;;8.90;4.87;;;18.70;98.00;;;;;;5034981;28;20462;-67
2023/06/15 06:39:21;;;;;;;8.27;5.00;;;18.80;98.00;;;;;;5035027;28;20462;-67
2023/06/15 06:41:48;;;;;;;9.90;4.67;;;18.80;98.00;;;;;;5035005;28;20505;-67
2023/06/15 06:44:16;;;;;;;9.93;5.43;;;19.00;97.80;;;;;;5035078;28;21154;-67
2023/06/15 06:46:45;;;;;;;8.17;4.80;;;19.10;97.30;;;;;;5034971;28;20532;-67
2023/06/15 06:49:12;;;;;;;9.80;5.00;;;19.10;96.90;;;;;;5034756;28;20502;-66
2023/06/15 06:51:39;;;;;;;8.57;5.40;;;19.30;97.90;;;;;;5034779;28;20450;-67
2023/06/15 06:54:06;;;;;;;9.83;5.13;;;19.40;98.00;;;;;;5034894;28;20455;-67
2023/06/15 06:56:33;;;;;;;8.87;4.63;;;19.50;96.40;;;;;;5035043;28;20465;-67
2023/06/15 06:59:00;;;;;;;9.37;5.20;;;19.50;96.50;;;;;;5034659;28;20489;-67
2023/06/15 07:01:27;;;;;;;10.13;5.10;;;19.60;96.60;;;;;;5034679;28;20549;-67
2023/06/15 07:03:56;;;;;;;6.73;4.53;;;19.60;96.80;;;;;;5034638;28;20459;-66
2023/06/15 07:06:23;;;;;;;8.47;4.90;;;19.70;96.30;;;;;;5017113;28;20466;-67
2023/06/15 07:08:51;;;;;;;9.10;5.27;;;19.80;96.60;;;;;;5034185;28;20490;-67
2023/06/15 07:11:18;;;;;;;11.40;6.13;;;19.80;96.80;;;;;;5034559;28;20520;-67
2023/06/15 07:13:45;;;;;;;11.97;5.30;;;20.00;96.60;;;;;;5016913;28;20455;-67
2023/06/15 07:16:12;;;;;;;9.03;5.07;;;20.10;96.90;;;;;;5034269;28;20994;-67
2023/06/15 07:18:40;;;;;;;7.60;4.73;;;20.20;96.00;;;;;;5034186;28;20550;-66
2023/06/15 07:21:08;;;;;;;8.73;5.33;;;20.30;95.20;;;;;;5034020;28;20462;-67
2023/06/15 07:23:35;;;;;;;9.87;4.80;;;20.40;95.80;;;;;;5033900;28;20470;-67
2023/06/15 07:26:02;;;;;;;8.80;5.43;;;20.40;94.60;;;;;;5016699;28;20481;-67
2023/06/15 07:28:31;;;;;;;8.80;4.90;;;20.50;95.10;;;;;;5033854;28;20481;-67
2023/06/15 07:30:58;;;;;;;8.87;5.10;;;20.70;94.00;;;;;;5033954;28;21026;-67
2023/06/15 07:33:25;;;;;;;10.10;5.53;;;20.70;93.90;;;;;;5046485;28;20458;-67
2023/06/15 07:35:52;;;;;;;7.97;5.00;;;20.80;93.90;;;;;;5052279;28;20944;-67
2023/06/15 07:38:21;;;;;;;7.13;5.07;;;21.00;93.40;;;;;;5053147;28;20454;-67
2023/06/15 07:40:48;;;;;;;8.40;4.90;;;21.00;93.30;;;;;;5052968;28;20955;-65
2023/06/15 07:43:21;;;;;;;11.47;5.00;;;21.10;93.20;;;;;;5044560;28;20458;-67
2023/06/15 07:45:49;;;;;;;9.63;4.90;;;21.20;93.40;;;;;;5271823;22;20488;-68
2023/06/15 07:48:16;;;;;;;7.77;4.90;;;21.30;92.60;;;;;;5072909;28;21048;-68
2023/06/15 07:50:43;;;;;;;9.70;5.07;;;21.40;91.70;;;;;;5069537;28;20450;-68
2023/06/15 07:53:10;;;;;;;7.47;4.73;;;21.50;92.20;;;;;;5067188;28;21035;-68
2023/06/15 07:55:38;;;;;;;11.50;5.40;;;21.60;92.20;;;;;;5072702;28;20445;-68
2023/06/15 07:58:05;;;;;;;10.53;5.43;;;21.70;91.70;;;;;;5072650;28;20468;-68
2023/06/15 08:00:32;;;;;;;7.93;4.80;;;21.80;92.00;;;;;;5072818;28;20502;-68
2023/06/15 08:03:00;;;;;;;9.00;5.37;;;22.00;91.30;;;;;;5072805;28;20453;-68
2023/06/15 08:05:27;;;;;;;9.30;5.67;;;22.10;91.20;;;;;;5072963;28;20825;-68
2023/06/15 08:07:54;;;;;;;10.07;5.47;;;22.20;90.60;;;;;;5072441;28;21027;-68
2023/06/15 08:10:21;;;;;;;9.40;5.03;;;22.40;90.00;;;;;;5072335;28;20453;-68
2023/06/15 08:12:50;;;;;;;9.50;5.67;;;22.40;89.90;;;;;;5072211;28;20456;-68
2023/06/15 08:15:17;;;;;;;10.10;5.27;;;22.50;88.80;;;;;;5072274;28;20954;-68
2023/06/15 08:17:44;;;;;;;8.63;5.53;;;22.60;89.30;;;;;;5072021;28;20463;-69
2023/06/15 08:20:13;;;;;;;8.50;4.97;;;22.70;88.70;;;;;;5054294;28;20835;-69
2023/06/15 08:22:42;;;;;;;9.13;5.03;;;22.80;88.70;;;;;;5063761;28;20971;-68
2023/06/15 08:25:12;;;;;;;9.77;5.13;;;22.90;88.10;;;;;;5059077;28;20447;-68
2023/06/15 08:27:39;;;;;;;9.73;5.20;;;23.00;88.90;;;;;;5092256;28;20525;-68
2023/06/15 08:30:10;;;;;;;9.70;5.17;;;23.10;87.40;;;;;;5074453;28;20483;-68
2023/06/15 08:32:37;;;;;;;8.00;5.10;;;23.20;89.00;;;;;;5092251;28;20463;-68
2023/06/15 08:35:06;;;;;;;10.90;5.90;;;23.30;87.70;;;;;;5083451;28;20468;-68
2023/06/15 08:37:40;;;;;;;7.43;4.50;;;23.40;86.40;;;;;;5072750;28;20456;-67
2023/06/15 08:40:09;;;;;;;7.07;4.73;;;23.40;85.60;;;;;;5054767;28;20449;-68
2023/06/15 08:42:38;;;;;;;9.27;5.60;;;23.50;86.10;;;;;;5072438;28;20457;-68
2023/06/15 08:45:07;;;;;;;10.53;5.70;;;23.60;85.60;;;;;;5072024;28;20501;-69
2023/06/15 08:47:36;;;;;;;8.30;5.10;;;23.60;85.80;;;;;;5071763;28;20437;-68
2023/06/15 08:50:05;;;;;;;8.87;4.90;;;23.70;85.30;;;;;;5071655;28;21100;-69
2023/06/15 08:52:34;;;;;;;8.50;5.10;;;23.80;85.00;;;;;;5071554;28;20968;-69
2023/06/15 08:55:05;;;;;;;8.17;5.07;;;23.80;84.90;;;;;;5071895;28;20453;-68
2023/06/15 08:57:35;;;;;;;8.13;5.20;;;23.80;85.30;;;;;;5071527;28;20463;-69
2023/06/15 09:00:09;;;;;;;13.23;5.23;;;24.00;84.50;;;;;;5063406;28;20528;-68
2023/06/15 09:02:41;;;;;;;7.80;5.07;;;24.00;83.00;;;;;;5051778;28;20465;-68
2023/06/15 09:05:08;;;;;;;8.83;5.07;;;24.10;84.20;;;;;;5034144;28;20537;-68
2023/06/15 09:07:35;;;;;;;9.93;4.90;;;24.20;83.10;;;;;;5051413;28;20876;-67
2023/06/15 09:10:14;;;;;;;8.13;5.03;;;24.30;82.60;;;;;;5051268;28;21002;-68
2023/06/15 09:12:43;;;;;;;7.10;4.80;;;24.40;81.40;;;;;;5051114;28;20469;-68
2023/06/15 09:15:13;;;;;;;7.13;4.87;;;24.60;80.90;;;;;;5051111;28;20489;-68
2023/06/15 09:17:43;;;;;;;7.30;4.40;;;24.70;81.10;;;;;;5051071;28;20454;-68
2023/06/15 09:20:10;;;;;;;6.40;4.73;;;25.00;80.40;;;;;;5073064;28;20851;-68
2023/06/15 09:22:42;;;;;;;7.97;4.50;;;25.10;80.10;;;;;;5091504;28;20950;-68
2023/06/15 09:25:17;;;;;;;7.30;4.67;;;25.30;79.80;;;;;;5058169;28;20505;-68
2023/06/15 09:27:54;;;;;;;7.03;4.97;;;25.40;79.40;;;;;;5052167;28;20489;-68
2023/06/15 09:30:22;;;;;;;6.47;4.20;;;25.60;76.90;;;;;;5051558;28;20520;-68
2023/06/15 09:32:51;;;;;;;6.03;4.13;;;25.50;74.70;;;;;;5034124;28;20953;-68
2023/06/15 09:35:19;;;;;;;6.87;4.33;;;25.70;76.10;;;;;;5051823;28;20492;-68
2023/06/15 09:37:51;;;;;;;7.93;4.97;;;25.80;74.80;;;;;;5070844;28;20977;-68
2023/06/15 09:40:18;;;;;;;7.10;4.40;;;25.80;74.90;;;;;;5071993;28;20484;-68
2023/06/15 09:42:50;;;;;;;9.03;4.60;;;25.70;76.50;;;;;;5054167;28;20459;-68
2023/06/15 09:45:18;;;;;;;6.93;4.43;;;25.50;76.90;;;;;;5071903;28;21202;-68
2023/06/15 09:47:45;;;;;;;6.63;4.43;;;25.40;76.60;;;;;;5070887;28;20487;-68
2023/06/15 09:50:13;;;;;;;7.13;4.90;;;25.20;76.10;;;;;;5071754;28;21049;-68
2023/06/15 09:52:44;;;;;;;7.67;4.50;;;25.10;76.30;;;;;;5073099;28;20469;-69
2023/06/15 09:55:13;;;;;;;8.60;5.07;;;25.10;76.90;;;;;;5071351;28;20453;-69
2023/06/15 09:57:41;;;;;;;7.30;4.87;;;25.30;76.80;;;;;;5074441;28;20460;-70
2023/06/15 10:00:11;;;;;;;9.70;4.90;;;25.40;76.70;;;;;;5073672;28;20540;-69
2023/06/15 10:02:39;;;;;;;9.00;4.67;;;25.40;76.20;;;;;;5055079;28;20545;-69
2023/06/15 10:05:13;;;;;;;6.97;4.37;;;25.50;76.90;;;;;;5055051;28;20472;-69
2023/06/15 10:07:49;;;;;;;7.33;4.77;;;25.40;76.30;;;;;;5054869;28;20532;-69
2023/06/15 10:10:19;;;;;;;8.50;4.53;;;25.30;76.40;;;;;;5055026;28;20492;-69
2023/06/15 10:12:51;;;;;;;8.00;4.93;;;25.20;77.40;;;;;;5058554;28;20467;-69
2023/06/15 10:15:20;;;;;;;6.00;4.40;;;25.20;76.70;;;;;;5074724;28;20456;-69
2023/06/15 10:17:53;;;;;;;7.07;4.43;;;25.10;76.90;;;;;;5074935;28;20453;-69
2023/06/15 10:20:23;;;;;;;8.13;4.60;;;24.90;76.40;;;;;;5074504;28;20556;-69
2023/06/15 10:22:57;;;;;;;10.53;4.63;;;24.80;76.50;;;;;;5074489;28;20452;-69
2023/06/15 10:25:27;;;;;;;9.10;4.60;;;24.70;76.50;;;;;;5056202;28;20545;-69
2023/06/15 10:27:55;;;;;;;7.53;4.70;;;24.60;76.70;;;;;;5074303;28;20830;-69
2023/06/15 10:30:32;;;;;;;7.40;4.77;;;24.70;76.80;;;;;;5074586;28;20480;-69
2023/06/15 10:33:06;;;;;;;6.90;4.53;;;24.70;76.80;;;;;;5057231;28;21008;-69
2023/06/15 10:35:41;;;;;;;8.57;4.40;;;24.70;76.80;;;;;;5074322;28;20727;-69
2023/06/15 10:38:25;;;;;;;6.40;4.50;;;24.70;76.10;;;;;;5063167;28;20473;-69
2023/06/15 10:40:54;;;;;;;10.40;4.90;;;24.70;76.90;;;;;;5053771;28;20461;-69
2023/06/15 10:43:25;;;;;;;6.63;4.23;;;24.90;76.70;;;;;;5036555;28;20481;-69
2023/06/15 10:45:53;;;;;;;8.83;4.53;;;25.00;75.70;;;;;;5085511;28;20504;-69
2023/06/15 10:48:26;;;;;;;7.47;4.37;;;25.10;76.00;;;;;;5094168;28;20452;-70
2023/06/15 10:51:03;;;;;;;7.10;4.40;;;25.10;75.50;;;;;;5064178;28;20500;-69
2023/06/15 10:53:38;;;;;;;7.43;4.23;;;25.50;75.00;;;;;;5087523;28;20456;-70
2023/06/15 10:56:13;;;;;;;6.23;4.10;;;26.10;75.30;;;;;;5094403;28;20538;-69
2023/06/15 10:58:54;;;;;;;8.77;5.00;;;26.60;74.40;;;;;;5076173;28;20470;-70
2023/06/15 11:01:22;;;;;;;6.10;4.33;;;27.00;72.60;;;;;;5094040;28;20459;-70
2023/06/15 11:03:50;;;;;;;7.57;5.03;;;27.30;70.70;;;;;;5053548;28;20496;-70
2023/06/15 11:06:39;;;;;;;6.47;4.60;;;27.60;72.40;;;;;;5053710;28;20878;-70
2023/06/15 11:09:13;;;;;;;6.60;4.40;;;27.90;70.60;;;;;;5034770;28;20485;-70
2023/06/15 11:11:44;;;;;;;6.13;4.40;;;28.20;69.70;;;;;;5053741;28;20639;-70
2023/06/15 11:14:23;;;;;;;7.47;4.73;;;28.40;69.20;;;;;;5057611;28;20471;-70
2023/06/15 11:17:03;;;;;;;7.20;4.67;;;28.70;67.00;;;;;;5073391;28;20448;-69
2023/06/15 11:19:30;;;;;;;6.07;4.10;;;28.80;66.00;;;;;;5055354;28;20514;-70
2023/06/15 11:22:04;;;;;;;8.10;4.70;;;28.90;66.40;;;;;;5073311;28;20509;-70
2023/06/15 11:24:36;;;;;;;6.03;4.13;;;28.80;67.10;;;;;;5073337;28;20452;-70
2023/06/15 11:27:04;;;;;;;7.47;4.90;;;28.80;65.20;;;;;;5073028;28;20526;-70
2023/06/15 11:29:33;;;;;;;5.90;4.37;;;29.00;66.70;;;;;;5073192;28;20894;-70
2023/06/15 11:32:02;;;;;;;6.80;4.47;;;29.30;66.10;;;;;;5073175;28;20479;-70
2023/06/15 11:34:29;;;;;;;7.00;4.40;;;29.60;65.10;;;;;;5073079;28;20564;-70
2023/06/15 11:36:58;;;;;;;7.63;5.00;;;29.80;63.60;;;;;;5047857;28;20460;-70
2023/06/15 11:39:28;;;;;;;8.33;4.43;;;29.50;64.40;;;;;;5093853;28;20522;-71
2023/06/15 11:41:58;;;;;;;8.13;4.50;;;29.20;64.90;;;;;;5093526;28;20458;-71
2023/06/15 11:44:26;;;;;;;8.93;4.73;;;28.70;65.10;;;;;;5094204;28;20489;-71
2023/06/15 11:46:55;;;;;;;8.10;5.00;;;28.30;66.70;;;;;;5094130;28;20479;-71
2023/06/15 11:49:22;;;;;;;14.47;4.77;;;27.80;66.20;;;;;;5094227;28;20448;-71
2023/06/15 11:51:52;;;;;;;6.80;4.33;;;27.50;66.70;;;;;;5093789;28;20451;-71
2023/06/15 11:54:23;;;;;;;7.00;4.50;;;27.10;67.30;;;;;;5093867;28;20452;-71
2023/06/15 11:56:51;;;;;;;7.10;4.27;;;26.80;66.60;;;;;;5093562;28;20455;-71
2023/06/15 11:59:21;;;;;;;6.40;4.43;;;26.60;67.30;;;;;;5093712;28;20513;-71
2023/06/15 12:01:50;;;;;;;8.20;5.30;;;26.50;67.80;;;;;;5093607;28;20516;-71
2023/06/15 12:04:17;;;;;;;6.07;4.10;;;26.40;68.30;;;;;;5093520;28;20470;-71
2023/06/15 12:06:46;;;;;;;7.00;4.57;;;26.30;68.90;;;;;;5093408;28;20452;-71
2023/06/15 12:09:14;;;;;;;7.33;4.10;;;26.30;68.60;;;;;;5093168;28;20463;-71
2023/06/15 12:11:41;;;;;;;5.80;3.97;;;26.20;69.10;;;;;;5093316;28;20452;-71
2023/06/15 12:14:09;;;;;;;7.80;3.90;;;26.30;69.80;;;;;;5092722;28;20459;-70
2023/06/15 12:16:39;;;;;;;6.47;4.40;;;26.90;66.60;;;;;;5093205;28;20548;-70
2023/06/15 12:19:10;;;;;;;6.50;4.07;;;27.50;66.50;;;;;;5093274;28;20460;-70
2023/06/15 12:21:38;;;;;;;5.83;3.83;;;28.30;65.70;;;;;;5093191;28;20457;-70
2023/06/15 12:24:13;;;;;;;6.03;4.50;;;28.50;65.00;;;;;;5093174;28;20456;-66
2023/06/15 12:26:40;;;;;;;6.47;4.50;;;28.50;65.70;;;;;;5074882;28;20451;-66
2023/06/15 12:29:15;;;;;;;6.23;4.40;;;28.30;65.70;;;;;;5093076;28;20460;-67
2023/06/15 12:31:47;;;;;;;6.07;4.10;;;28.00;67.00;;;;;;5093008;28;20477;-67
2023/06/15 12:34:14;;;;;;;8.23;4.30;;;27.80;67.00;;;;;;5093090;28;20456;-65
2023/06/15 12:36:41;;;;;;;7.97;4.10;;;27.70;68.30;;;;;;5093043;28;20957;-64
2023/06/15 12:39:12;;;;;;;7.63;4.40;;;27.70;67.50;;;;;;5092600;28;20460;-64
2023/06/15 12:41:40;;;;;;;6.83;4.20;;;27.70;67.60;;;;;;5093047;28;20967;-65
2023/06/15 12:44:08;;;;;;;6.33;4.27;;;27.70;67.80;;;;;;5092887;28;20529;-65
2023/06/15 12:46:38;;;;;;;6.57;4.30;;;27.80;67.10;;;;;;5093077;28;20468;-67
2023/06/15 12:49:06;;;;;;;6.20;4.00;;;27.70;68.00;;;;;;5092981;28;20456;-66
2023/06/15 12:51:34;;;;;;;7.07;4.20;;;27.50;65.70;;;;;;5092842;28;20856;-67
2023/06/15 12:54:01;;;;;;;6.60;4.17;;;27.50;67.50;;;;;;5092578;28;20495;-66
2023/06/15 12:56:30;;;;;;;7.63;3.80;;;27.90;67.70;;;;;;5092363;28;20550;-67
2023/06/15 12:58:57;;;;;;;7.10;4.40;;;28.60;66.80;;;;;;5092411;28;20488;-66
2023/06/15 13:01:24;;;;;;;7.50;4.10;;;29.30;64.70;;;;;;5092602;28;20456;-66
2023/06/15 13:03:51;;;;;;;6.27;4.23;;;29.50;64.10;;;;;;5092566;28;20489;-66
2023/06/15 13:06:19;;;;;;;6.37;4.40;;;29.20;64.60;;;;;;5092451;28;20973;-68
2023/06/15 13:08:47;;;;;;;6.17;4.27;;;29.00;65.50;;;;;;5092418;28;20468;-68
2023/06/15 13:11:14;;;;;;;7.03;4.50;;;28.70;65.50;;;;;;5092411;28;20570;-66
2023/06/15 13:13:41;;;;;;;8.10;4.83;;;28.40;65.20;;;;;;5074428;28;20505;-67
2023/06/15 13:16:08;;;;;;;6.47;4.27;;;28.10;65.90;;;;;;5057772;28;20851;-66
2023/06/15 13:18:35;;;;;;;7.20;4.57;;;27.90;65.60;;;;;;5092238;28;20486;-68
2023/06/15 13:21:02;;;;;;;7.30;4.53;;;27.50;66.50;;;;;;5092778;28;20837;-68
2023/06/15 13:23:31;;;;;;;6.57;4.33;;;27.40;67.50;;;;;;5092193;28;20501;-68
2023/06/15 13:25:58;;;;;;;6.30;3.90;;;27.70;65.20;;;;;;5092437;28;20513;-66
2023/06/15 13:28:25;;;;;;;8.37;4.30;;;28.50;65.90;;;;;;5092318;28;20459;-67
2023/06/15 13:30:52;;;;;;;7.47;4.33;;;29.10;63.20;;;;;;5074023;28;20502;-68
2023/06/15 13:33:20;;;;;;;6.80;4.63;;;29.30;62.00;;;;;;5092260;28;20941;-68
2023/06/15 13:35:48;;;;;;;6.73;4.00;;;29.30;62.20;;;;;;5092210;28;20821;-67
2023/06/15 13:38:15;;;;;;;8.73;4.30;;;29.50;62.90;;;;;;5090974;28;20983;-64
2023/06/15 13:40:44;;;;;;;5.50;4.23;;;29.90;64.00;;;;;;5091989;28;20209;-66
2023/06/15 13:43:13;;;;;;;7.53;4.50;;;30.30;62.60;;;;;;5092359;28;20792;-65
2023/06/15 13:45:40;;;;;;;7.33;4.40;;;30.30;61.90;;;;;;5091996;28;20897;-65
2023/06/15 13:48:08;;;;;;;7.33;4.57;;;29.80;61.70;;;;;;5092059;28;20509;-65
2023/06/15 13:50:36;;;;;;;7.27;4.53;;;29.70;63.50;;;;;;5090423;28;20590;-68
2023/06/15 13:53:02;;;;;;;6.03;4.77;;;29.80;63.60;;;;;;5092007;28;20456;-67
2023/06/15 13:55:30;;;;;;;6.17;4.53;;;30.20;63.40;;;;;;5091794;28;20497;-69
2023/06/15 13:57:59;;;;;;;5.70;4.27;;;30.20;62.90;;;;;;5092017;28;20483;-75
2023/06/15 14:00:28;;;;;;;5.70;3.80;;;30.40;64.20;;;;;;5091745;28;20502;-71
2023/06/15 14:02:55;;;;;;;9.20;4.80;;;30.40;63.10;;;;;;5091760;28;20472;-71
2023/06/15 14:05:25;;;;;;;6.37;4.20;;;30.00;63.20;;;;;;5091947;28;20468;-71
2023/06/15 14:07:52;;;;;;;5.90;4.43;;;30.00;63.20;;;;;;5091539;28;20456;-71